カンクン国際空港の過去48時間の天気

カンクン国際空港 (Cancun International Airport)

現在時刻: 2/20 21:44 CST (2/21 03:44 UTC) 以下の時間は現地時間です。

過去48時間のMETAR気象情報
時間 風向 風速(m/s) 視程 気温(℃) 湿度(%) 気圧(hPa) 天気現象
20 20:50 北北東 2 10km以上 25 100 1019.1
20 19:43 北北東 2 10km以上 25 100 1019
20 18:42 北東 2 10km以上 25 89 1017
20 17:45 北北東 3 10km以上 27 79 1016.9
20 16:49 北東 3 10km以上 28 74 1016
20 15:43 東南東 5 10km以上 29 70 1016
20 14:45 東南東 3 10km以上 29 66 1016.3
20 13:46 東北東 4 10km以上 30 66 1017
MMUN 210250Z 02004KT 6SM SCT015 25/25 A3009 RMK SLP191 51022 954 8/100 HZY
MMUN 210143Z 02003KT 6SM SCT015 25/25 A3008 RMK 8/100 HZY
MMUN 210042Z 04003KT 7SM FEW015 25/23 A3004 RMK 8/100
MMUN 202345Z 03006KT 6SM FEW015 27/23 A3003 RMK SLP169 52006 961 8/100 HZY
MMUN 202249Z 04005KT 7SM FEW015 28/23 A3001 RMK 8/100
MMUN 202143Z 11009KT 7SM FEW015 29/23 A3000 RMK 8/100
MMUN 202045Z 11006KT 7SM SCT015 29/22 A3001 RMK SLP163 57018 964 8/100
MMUN 201946Z 07007KT 7SM SCT015 30/23 A3002 RMK 8/100 HZY MDT CU